Time;durP1;ratioP1;P1;durP2;ratioP2;P2;SDS_P1;SDS_P2;PMS_P1;PMS_P2;Temp;Humidity;BMP_temperature;BMP_pressure;BME280_temperature;BME280_humidity;BME280_pressure;Samples;Min_cycle;Max_cycle;Signal;HPM_P1;HPM_P2
2022/04/02 00:01:58;;;;;;;0.00;0.00;;;;;;;-0.30;97.65;97541.44;4991735;28;20181;-55
2022/04/02 00:04:26;;;;;;;0.00;0.00;;;;;;;-0.23;97.69;97541.81;4991831;28;20523;-55
2022/04/02 00:06:53;;;;;;;0.00;0.00;;;;;;;-0.26;97.77;97541.22;4997751;28;20218;-55
2022/04/02 00:09:20;;;;;;;0.00;0.00;;;;;;;-0.23;97.68;97539.25;4999688;28;20211;-56
2022/04/02 00:11:47;;;;;;;0.00;0.00;;;;;;;-0.20;98.10;97539.03;5001382;28;20191;-56
2022/04/02 00:14:14;;;;;;;0.00;0.00;;;;;;;-0.28;97.28;97535.38;4998728;28;20185;-55
2022/04/02 00:16:41;;;;;;;0.00;0.00;;;;;;;-0.35;98.28;97538.38;4999857;28;20208;-55
2022/04/02 00:19:08;;;;;;;0.00;0.00;;;;;;;-0.36;97.62;97546.19;5001612;28;20283;-56
2022/04/02 00:21:37;;;;;;;0.00;0.00;;;;;;;-0.38;97.73;97543.72;5000112;28;20192;-56
2022/04/02 00:24:04;;;;;;;0.00;0.00;;;;;;;-0.34;98.14;97534.88;4990480;28;20199;-56
2022/04/02 00:26:31;;;;;;;0.00;0.00;;;;;;;-0.31;98.41;97539.78;4990081;28;20546;-56
2022/04/02 00:28:57;;;;;;;0.00;0.00;;;;;;;-0.28;98.72;97545.63;4991365;28;20288;-56
2022/04/02 00:31:24;;;;;;;0.00;0.00;;;;;;;-0.30;96.82;97540.63;4989547;28;20211;-56
2022/04/02 00:33:51;;;;;;;0.00;0.00;;;;;;;-0.37;97.54;97531.72;4993354;28;20197;-56
2022/04/02 00:36:20;;;;;;;0.00;0.00;;;;;;;-0.41;97.83;97538.00;4988382;28;20213;-55
2022/04/02 00:38:49;;;;;;;0.00;0.00;;;;;;;-0.37;98.78;97535.09;4991110;28;20179;-56
2022/04/02 00:41:16;;;;;;;0.00;0.00;;;;;;;-0.47;98.09;97534.94;4990910;28;20677;-56
2022/04/02 00:43:56;;;;;;;0.00;0.00;;;;;;;-0.42;98.10;97532.03;5009450;28;20201;-56
2022/04/02 00:46:23;;;;;;;0.00;0.00;;;;;;;-0.38;98.16;97520.63;4987282;28;20247;-55
2022/04/02 00:48:50;;;;;;;0.00;0.00;;;;;;;-0.39;97.80;97525.88;4989852;28;20607;-56
2022/04/02 00:51:18;;;;;;;0.00;0.00;;;;;;;-0.38;98.12;97524.97;4989173;28;20204;-56
2022/04/02 00:53:49;;;;;;;0.00;0.00;;;;;;;-0.30;97.80;97533.72;4990053;28;20232;-56
2022/04/02 00:56:17;;;;;;;0.00;0.00;;;;;;;-0.37;98.43;97532.53;4991229;28;20268;-55
2022/04/02 00:58:45;;;;;;;0.00;0.00;;;;;;;-0.39;98.24;97536.16;4989719;28;20193;-55
2022/04/02 01:01:16;;;;;;;0.00;0.00;;;;;;;-0.39;98.41;97525.88;4989872;28;20194;-56
2022/04/02 01:03:48;;;;;;;0.00;0.00;;;;;;;-0.37;98.82;97529.97;4990011;28;20281;-56
2022/04/02 01:06:20;;;;;;;0.00;0.00;;;;;;;-0.30;98.01;97527.81;4989551;28;20249;-56
2022/04/02 01:08:49;;;;;;;0.00;0.00;;;;;;;-0.30;98.49;97527.81;4989779;28;20235;-55
2022/04/02 01:11:17;;;;;;;0.00;0.00;;;;;;;-0.35;98.82;97533.25;4989604;28;20197;-56
2022/04/02 01:13:50;;;;;;;0.00;0.00;;;;;;;-0.37;98.35;97529.97;4990052;28;20207;-56
2022/04/02 01:16:21;;;;;;;0.00;0.00;;;;;;;-0.27;97.92;97542.13;4989243;28;20197;-57
2022/04/02 01:18:50;;;;;;;0.00;0.00;;;;;;;-0.35;98.46;97542.69;4989584;28;20235;-57
2022/04/02 01:21:23;;;;;;;0.00;0.00;;;;;;;-0.37;99.52;97542.78;4989337;28;20204;-56
2022/04/02 01:23:56;;;;;;;0.00;0.00;;;;;;;-0.28;100.00;97536.19;4989839;28;20196;-57
2022/04/02 01:26:23;;;;;;;0.00;0.00;;;;;;;-0.37;98.93;97547.91;4992890;28;20216;-56
2022/04/02 01:28:56;;;;;;;0.00;0.00;;;;;;;-0.31;99.74;97549.25;4993203;28;20276;-55
2022/04/02 01:31:29;;;;;;;0.00;0.00;;;;;;;-0.30;100.00;97553.44;4992907;28;20196;-56
2022/04/02 01:33:59;;;;;;;0.00;0.00;;;;;;;-0.27;99.31;97547.25;4992632;28;20218;-57
2022/04/02 01:36:29;;;;;;;0.00;0.00;;;;;;;-0.27;99.03;97542.97;4992868;28;20212;-57
2022/04/02 01:39:15;;;;;;;0.00;0.00;;;;;;;-0.28;98.72;97541.34;4993155;28;20213;-56
2022/04/02 01:41:44;;;;;;;0.00;0.00;;;;;;;-0.25;98.66;97548.81;4994510;28;20189;-56
2022/04/02 01:44:13;;;;;;;0.00;0.00;;;;;;;-0.35;99.04;97542.69;4992782;28;20204;-56
2022/04/02 01:46:40;;;;;;;0.00;0.00;;;;;;;-0.36;99.94;97541.06;4992845;28;20220;-56
2022/04/02 01:49:08;;;;;;;0.00;0.00;;;;;;;-0.35;100.00;97540.13;4992708;28;20221;-57
2022/04/02 01:51:35;;;;;;;0.00;0.00;;;;;;;-0.24;99.96;97545.31;4992662;28;20189;-56
2022/04/02 01:54:06;;;;;;;0.00;0.00;;;;;;;-0.27;99.43;97545.53;4992321;28;20197;-57
2022/04/02 01:56:34;;;;;;;0.00;0.00;;;;;;;-0.24;99.93;97555.56;4992739;28;20193;-56
2022/04/02 01:59:03;;;;;;;0.00;0.00;;;;;;;-0.17;98.59;97550.81;4992868;28;20217;-56
2022/04/02 02:01:32;;;;;;;0.00;0.00;;;;;;;-0.19;97.84;97552.66;4992503;28;20220;-57
2022/04/02 02:03:59;;;;;;;0.00;0.00;;;;;;;-0.18;98.48;97546.63;5018590;22;20335;-56
2022/04/02 02:06:27;;;;;;;0.00;0.00;;;;;;;-0.30;99.14;97543.19;5031566;28;20227;-55
2022/04/02 02:08:55;;;;;;;0.00;0.00;;;;;;;-0.34;100.00;97547.69;5031906;28;20188;-55
2022/04/02 02:11:36;;;;;;;0.00;0.00;;;;;;;-0.35;99.86;97543.50;5031459;28;20660;-56
2022/04/02 02:14:26;;;;;;;0.00;0.00;;;;;;;-0.36;100.00;97554.69;5029308;28;20580;-56
2022/04/02 02:17:22;;;;;;;0.00;0.00;;;;;;;-0.26;99.68;97549.75;5032789;28;20561;-56
2022/04/02 02:19:58;;;;;;;0.00;0.00;;;;;;;-0.29;99.74;97557.66;5031517;28;20198;-56
2022/04/02 02:22:25;;;;;;;0.00;0.00;;;;;;;-0.31;99.57;97565.44;5031852;28;20195;-56
2022/04/02 02:24:51;;;;;;;0.00;0.00;;;;;;;-0.28;98.88;97558.44;5031399;28;20466;-56
2022/04/02 02:27:20;;;;;;;0.00;0.00;;;;;;;-0.24;100.00;97565.00;5031550;28;20215;-56
2022/04/02 02:29:46;;;;;;;0.00;0.00;;;;;;;-0.27;100.00;97558.34;5032841;28;20186;-56
2022/04/02 02:32:20;;;;;;;0.00;0.00;;;;;;;-0.23;99.22;97575.16;5031594;28;20223;-56
2022/04/02 02:37:31;;;;;;;0.00;0.00;;;;;;;-0.20;98.88;97559.56;5030340;28;20184;-56
2022/04/02 02:40:06;;;;;;;0.00;0.00;;;;;;;-0.21;98.29;97567.34;5031040;28;20659;-56
2022/04/02 02:42:35;;;;;;;0.00;0.00;;;;;;;-0.31;98.45;97552.63;5031504;28;20202;-56
2022/04/02 02:45:26;;;;;;;0.00;0.00;;;;;;;-0.24;98.57;97563.28;5030762;28;20215;-56
2022/04/02 02:48:00;;;;;;;0.00;0.00;;;;;;;-0.20;99.07;97564.69;5031202;28;20342;-56
2022/04/02 02:50:37;;;;;;;0.00;0.00;;;;;;;-0.27;98.50;97566.06;5030878;28;20194;-56
2022/04/02 02:53:05;;;;;;;0.00;0.00;;;;;;;-0.27;97.92;97560.91;5031075;28;20191;-56
2022/04/02 02:55:32;;;;;;;0.00;0.00;;;;;;;-0.34;98.62;97565.66;5030847;28;20192;-56
2022/04/02 02:58:07;;;;;;;0.00;0.00;;;;;;;-0.31;98.74;97564.63;5030994;28;20798;-56
2022/04/02 03:00:37;;;;;;;0.00;0.00;;;;;;;-0.31;98.25;97562.06;5030652;28;20261;-56
2022/04/02 03:03:07;;;;;;;0.00;0.00;;;;;;;-0.26;98.75;97561.72;5030693;28;20298;-56
2022/04/02 03:05:35;;;;;;;0.00;0.00;;;;;;;-0.22;99.08;97565.72;5030395;28;20199;-56
2022/04/02 03:08:08;;;;;;;0.00;0.00;;;;;;;-0.33;98.67;97569.84;5030607;28;20755;-56
2022/04/02 03:10:50;;;;;;;0.00;0.00;;;;;;;-0.26;98.73;97569.41;5030416;28;20211;-56
2022/04/02 03:13:24;;;;;;;0.00;0.00;;;;;;;-0.28;99.17;97566.97;5030831;28;20753;-56
2022/04/02 03:15:59;;;;;;;0.00;0.00;;;;;;;-0.30;99.53;97561.94;5030176;28;20194;-56
2022/04/02 03:18:26;;;;;;;0.00;0.00;;;;;;;-0.28;98.35;97561.84;5030274;28;20693;-56
2022/04/02 03:20:53;;;;;;;0.00;0.00;;;;;;;-0.24;98.08;97567.56;5031514;28;20187;-56
2022/04/02 03:23:25;;;;;;;0.00;0.00;;;;;;;-0.29;99.00;97565.34;5030378;28;20556;-56
2022/04/02 03:25:52;;;;;;;0.00;0.00;;;;;;;-0.21;99.34;97573.31;5029852;28;20187;-56
2022/04/02 03:28:20;;;;;;;0.00;0.00;;;;;;;-0.17;99.18;97571.34;5030298;28;20196;-56
2022/04/02 03:30:49;;;;;;;0.00;0.00;;;;;;;-0.27;99.22;97568.63;5029971;28;20188;-56
2022/04/02 03:33:16;;;;;;;0.00;0.00;;;;;;;-0.23;98.77;97576.91;5030120;28;20215;-56
2022/04/02 03:35:44;;;;;;;0.00;0.00;;;;;;;-0.22;98.90;97579.38;5029988;28;20278;-56
2022/04/02 03:38:11;;;;;;;0.00;0.00;;;;;;;-0.24;98.65;97577.81;5030307;28;20195;-57
2022/04/02 03:40:42;;;;;;;0.00;0.00;;;;;;;-0.23;98.10;97580.28;5030211;28;20275;-56
2022/04/02 03:43:10;;;;;;;0.00;0.00;;;;;;;-0.22;99.51;97576.81;5030081;28;20215;-56
2022/04/02 03:45:37;;;;;;;0.00;0.00;;;;;;;-0.21;100.00;97585.31;5030884;28;20184;-56
2022/04/02 03:48:08;;;;;;;0.00;0.00;;;;;;;-0.18;98.66;97583.34;5029787;28;20239;-56
2022/04/02 03:50:40;;;;;;;0.00;0.00;;;;;;;-0.12;98.97;97586.41;5029815;28;20684;-57
2022/04/02 03:53:13;;;;;;;0.00;0.00;;;;;;;-0.17;97.79;97592.69;5029888;28;20512;-56
2022/04/02 03:55:50;;;;;;;0.00;0.00;;;;;;;-0.10;97.22;97587.13;5029374;28;20196;-56
2022/04/02 03:58:25;;;;;;;0.00;0.00;;;;;;;-0.12;97.62;97588.97;5029909;28;20199;-56
2022/04/02 04:00:53;;;;;;;0.00;0.00;;;;;;;-0.21;97.05;97588.69;5029636;28;20195;-56
2022/04/02 04:03:21;;;;;;;0.00;0.00;;;;;;;-0.24;97.51;97593.22;5029619;28;20208;-56
2022/04/02 04:05:51;;;;;;;0.00;0.00;;;;;;;-0.23;98.47;97592.28;5029425;28;20197;-56
2022/04/02 04:08:19;;;;;;;0.00;0.00;;;;;;;-0.28;97.17;97605.44;5029479;28;20695;-56
2022/04/02 04:10:46;;;;;;;0.00;0.00;;;;;;;-0.28;97.16;97599.47;5029579;28;20198;-56
2022/04/02 04:13:16;;;;;;;0.00;0.00;;;;;;;-0.24;97.89;97608.59;5029726;28;20231;-56
2022/04/02 04:15:44;;;;;;;0.00;0.00;;;;;;;-0.31;97.61;97608.22;5029217;28;20592;-56
2022/04/02 04:18:12;;;;;;;0.00;0.00;;;;;;;-0.22;97.11;97607.59;5029757;28;20451;-56
2022/04/02 04:20:42;;;;;;;0.00;0.00;;;;;;;-0.18;97.94;97608.16;5029475;28;20729;-56
2022/04/02 04:23:13;;;;;;;0.00;0.00;;;;;;;-0.29;97.59;97616.63;5029590;28;20258;-56
2022/04/02 04:25:42;;;;;;;0.00;0.00;;;;;;;-0.26;98.27;97618.16;5029227;28;20286;-56
2022/04/02 04:28:10;;;;;;;0.00;0.00;;;;;;;-0.29;98.77;97624.31;5029534;28;20222;-56
2022/04/02 04:30:38;;;;;;;0.00;0.00;;;;;;;-0.25;98.57;97618.06;5029334;28;20192;-57
2022/04/02 04:33:06;;;;;;;0.00;0.00;;;;;;;-0.31;98.75;97631.31;5029586;28;20265;-57
2022/04/02 04:35:33;;;;;;;0.00;0.00;;;;;;;-0.34;99.60;97628.94;5030684;28;20187;-57
2022/04/02 04:38:01;;;;;;;0.00;0.00;;;;;;;-0.23;98.68;97633.31;5029421;28;20199;-56
2022/04/02 04:40:30;;;;;;;0.00;0.00;;;;;;;-0.33;99.00;97633.97;5029217;28;20196;-56
2022/04/02 04:42:59;;;;;;;0.00;0.00;;;;;;;-0.33;98.23;97639.09;5029290;28;20192;-56
2022/04/02 04:45:34;;;;;;;0.00;0.00;;;;;;;-0.31;98.25;97644.94;5028889;28;20559;-56
2022/04/02 04:48:02;;;;;;;0.00;0.00;;;;;;;-0.35;98.19;97643.50;5030361;28;20202;-56
2022/04/02 04:50:33;;;;;;;0.00;0.00;;;;;;;-0.38;99.93;97653.97;5029139;28;20274;-57
2022/04/02 04:53:02;;;;;;;0.00;0.00;;;;;;;-0.40;99.71;97649.88;5029417;28;20198;-56
2022/04/02 04:55:30;;;;;;;0.00;0.00;;;;;;;-0.33;99.09;97651.09;5028949;28;20279;-57
2022/04/02 04:57:58;;;;;;;0.00;0.00;;;;;;;-0.31;98.57;97654.38;5029225;28;20195;-56
2022/04/02 05:00:28;;;;;;;0.00;0.00;;;;;;;-0.39;98.06;97656.66;5031130;28;20231;-56
2022/04/02 05:02:55;;;;;;;0.00;0.00;;;;;;;-0.40;98.70;97657.59;5032945;28;20199;-56
2022/04/02 05:05:33;;;;;;;0.00;0.00;;;;;;;-0.38;99.59;97660.84;5032670;28;20199;-57
2022/04/02 05:08:03;;;;;;;0.00;0.00;;;;;;;-0.30;98.67;97668.84;5032851;28;20219;-56
2022/04/02 05:10:33;;;;;;;0.00;0.00;;;;;;;-0.31;98.74;97662.88;5032667;28;20799;-56
2022/04/02 05:13:02;;;;;;;0.00;0.00;;;;;;;-0.39;98.19;97672.03;5032653;28;20203;-56
2022/04/02 05:15:30;;;;;;;0.00;0.00;;;;;;;-0.41;98.02;97666.19;5032541;28;20242;-56
2022/04/02 05:17:58;;;;;;;0.00;0.00;;;;;;;-0.43;98.82;97673.19;5034172;28;20172;-56
2022/04/02 05:20:28;;;;;;;0.00;0.00;;;;;;;-0.45;99.42;97676.66;5032551;28;20192;-56
2022/04/02 05:22:55;;;;;;;0.00;0.00;;;;;;;-0.43;99.13;97678.31;5032822;28;20195;-56
2022/04/02 05:25:24;;;;;;;0.00;0.00;;;;;;;-0.45;98.54;97676.66;5032353;28;20192;-56
2022/04/02 05:27:54;;;;;;;0.00;0.00;;;;;;;-0.39;99.16;97682.28;5032466;28;20219;-56
2022/04/02 05:30:22;;;;;;;0.00;0.00;;;;;;;-0.45;98.16;97691.22;5032279;28;20223;-56
2022/04/02 05:32:48;;;;;;;0.00;0.00;;;;;;;-0.47;98.89;97695.63;5032572;28;20191;-57
2022/04/02 05:35:15;;;;;;;0.00;0.00;;;;;;;-0.45;99.52;97706.59;5033282;28;20219;-56
2022/04/02 05:37:46;;;;;;;0.00;0.00;;;;;;;-0.46;99.31;97699.81;5032556;28;20198;-56
2022/04/02 05:40:14;;;;;;;0.00;0.00;;;;;;;-0.46;98.87;97705.78;5031975;28;20660;-56
2022/04/02 05:42:41;;;;;;;0.00;0.00;;;;;;;-0.41;98.49;97707.22;5032514;28;20227;-56
2022/04/02 05:45:10;;;;;;;0.00;0.00;;;;;;;-0.45;98.57;97710.00;5031768;28;20219;-56
2022/04/02 05:47:44;;;;;;;0.00;0.00;;;;;;;-0.39;98.59;97708.75;5032070;28;20208;-57
2022/04/02 05:50:13;;;;;;;0.00;0.00;;;;;;;-0.46;97.63;97721.16;5033334;28;20194;-57
2022/04/02 05:52:40;;;;;;;0.00;0.00;;;;;;;-0.52;99.57;97715.63;5033650;28;20207;-56
2022/04/02 05:55:08;;;;;;;0.00;0.00;;;;;;;-0.45;99.17;97724.53;5033004;28;20227;-57
2022/04/02 05:57:35;;;;;;;0.00;0.00;;;;;;;-0.50;100.00;97727.44;5033225;28;20181;-57
2022/04/02 06:00:05;;;;;;;0.00;0.00;;;;;;;-0.48;100.00;97727.31;5032826;28;20184;-57
2022/04/02 06:02:40;;;;;;;0.00;0.00;;;;;;;-0.40;100.00;97725.06;5033451;28;20191;-56
2022/04/02 06:05:08;;;;;;;0.00;0.00;;;;;;;-0.38;100.00;97732.66;5032662;28;20219;-56
2022/04/02 06:07:35;;;;;;;0.00;0.00;;;;;;;-0.24;100.00;97729.13;5033385;28;20291;-56
2022/04/02 06:10:04;;;;;;;0.00;0.00;;;;;;;-0.26;99.27;97733.56;5032940;28;20215;-56
2022/04/02 06:12:31;;;;;;;0.00;0.00;;;;;;;-0.32;97.82;97740.75;5031801;28;20191;-56
2022/04/02 06:14:59;;;;;;;0.00;0.00;;;;;;;-0.20;98.97;97746.78;5032616;28;20219;-56
2022/04/02 06:17:27;;;;;;;0.00;0.00;;;;;;;-0.20;98.04;97746.78;5033144;28;20223;-56
2022/04/02 06:19:54;;;;;;;0.00;0.00;;;;;;;-0.14;97.16;97752.44;5033105;28;20293;-56
2022/04/02 06:22:21;;;;;;;0.00;0.00;;;;;;;-0.16;96.57;97752.53;5032950;28;20837;-56
2022/04/02 06:24:48;;;;;;;0.00;0.00;;;;;;;-0.29;96.73;97749.97;5032596;28;20200;-56
2022/04/02 06:27:15;;;;;;;0.00;0.00;;;;;;;-0.29;96.29;97755.13;5032624;28;20203;-56
2022/04/02 06:29:42;;;;;;;0.00;0.00;;;;;;;-0.30;97.22;97759.41;5032507;28;20184;-56
2022/04/02 06:32:09;;;;;;;0.00;0.00;;;;;;;-0.26;96.21;97760.03;5032622;28;20677;-56
2022/04/02 06:34:37;;;;;;;0.00;0.00;;;;;;;-0.30;96.65;97759.41;5030853;28;20687;-56
2022/04/02 06:37:05;;;;;;;0.00;0.00;;;;;;;-0.21;96.24;97768.25;5031366;28;20571;-56
2022/04/02 06:39:32;;;;;;;0.00;0.00;;;;;;;-0.26;97.28;97774.59;5032455;28;20184;-56
2022/04/02 06:41:58;;;;;;;0.00;0.00;;;;;;;-0.18;96.83;97791.13;5032390;28;20200;-56
2022/04/02 06:44:31;;;;;;;0.00;0.00;;;;;;;-0.21;96.64;97787.94;5030668;28;20219;-56
2022/04/02 06:46:59;;;;;;;0.00;0.00;;;;;;;-0.18;96.12;97793.69;5032352;28;20206;-56
2022/04/02 06:49:26;;;;;;;0.00;0.00;;;;;;;-0.28;95.82;97791.81;5032474;28;20188;-56
2022/04/02 06:51:55;;;;;;;0.00;0.00;;;;;;;-0.24;96.18;97795.81;5032169;28;20652;-56
2022/04/02 06:54:21;;;;;;;0.00;0.00;;;;;;;-0.26;95.64;97793.38;5031723;28;20207;-56
2022/04/02 06:56:50;;;;;;;0.00;0.00;;;;;;;-0.21;95.91;97799.03;5032097;28;20239;-56
2022/04/02 06:59:17;;;;;;;0.00;0.00;;;;;;;-0.22;95.67;97797.38;5032251;28;20184;-56
2022/04/02 07:01:44;;;;;;;0.00;0.00;;;;;;;-0.14;96.13;97801.97;5030481;28;20545;-56
2022/04/02 07:04:11;;;;;;;0.00;0.00;;;;;;;-0.10;95.97;97802.59;5031535;28;20247;-56
2022/04/02 07:06:44;;;;;;;0.00;0.00;;;;;;;-0.12;94.94;97807.81;5031926;28;20187;-56
2022/04/02 07:09:14;;;;;;;0.00;0.00;;;;;;;-0.14;95.66;97814.81;5032011;28;20298;-56
2022/04/02 07:11:42;;;;;;;0.00;0.00;;;;;;;-0.14;95.25;97814.81;5031541;28;20660;-56
2022/04/02 07:14:09;;;;;;;0.00;0.00;;;;;;;-0.09;93.81;97817.88;5031353;28;20702;-56
2022/04/02 07:16:36;;;;;;;0.00;0.00;;;;;;;-0.16;94.51;97824.34;5031811;28;20188;-56
2022/04/02 07:19:04;;;;;;;0.00;0.00;;;;;;;-0.17;94.77;97827.84;5031842;28;20187;-56
2022/04/02 07:21:34;;;;;;;0.00;0.00;;;;;;;-0.12;94.74;97838.63;5031500;28;20182;-56
2022/04/02 07:24:02;;;;;;;0.00;0.00;;;;;;;-0.10;94.90;97838.53;5030822;28;20207;-56
2022/04/02 07:26:32;;;;;;;0.00;0.00;;;;;;;-0.04;94.46;97832.97;5031437;28;20187;-56
2022/04/02 07:28:59;;;;;;;0.00;0.00;;;;;;;-0.20;94.57;97846.00;5030243;28;20219;-56
2022/04/02 07:31:26;;;;;;;0.00;0.00;;;;;;;-0.09;94.29;97845.28;5031451;28;20183;-56
2022/04/02 07:33:53;;;;;;;0.00;0.00;;;;;;;-0.02;93.92;97849.91;5031703;28;20239;-56
2022/04/02 07:36:28;;;;;;;0.00;0.00;;;;;;;-0.04;93.93;97856.88;5029999;28;20572;-56
2022/04/02 07:39:02;;;;;;;0.00;0.00;;;;;;;0.01;93.58;97860.88;5031622;28;20449;-56
2022/04/02 07:41:38;;;;;;;0.00;0.00;;;;;;;-0.11;93.94;97873.59;5031082;28;20670;-56
2022/04/02 07:44:16;;;;;;;0.00;0.00;;;;;;;-0.19;94.21;97869.00;5030922;28;20694;-56
2022/04/02 07:46:44;;;;;;;0.00;0.00;;;;;;;-0.24;95.40;97878.72;5031313;28;20190;-56
2022/04/02 07:49:12;;;;;;;0.00;0.00;;;;;;;-0.14;95.15;97875.56;5029812;28;20564;-56
2022/04/02 07:51:40;;;;;;;0.00;0.00;;;;;;;-0.21;94.59;97881.09;5030987;28;20184;-56
2022/04/02 07:54:07;;;;;;;0.00;0.00;;;;;;;-0.36;95.45;97887.22;5030682;28;20211;-56
2022/04/02 07:56:49;;;;;;;0.00;0.00;;;;;;;-0.25;95.56;97887.34;5029837;28;20218;-56
2022/04/02 07:59:26;;;;;;;0.00;0.00;;;;;;;-0.13;94.73;97888.28;5031246;28;20191;-56
2022/04/02 08:01:54;;;;;;;0.00;0.00;;;;;;;-0.15;94.58;97897.81;5030912;28;20679;-56
2022/04/02 08:04:22;;;;;;;0.00;0.00;;;;;;;-0.26;94.81;97895.97;5030425;28;20219;-56
2022/04/02 08:06:49;;;;;;;0.00;0.00;;;;;;;-0.25;94.95;97894.22;5030025;28;20205;-56
2022/04/02 08:09:18;;;;;;;0.00;0.00;;;;;;;-0.17;94.63;97891.97;5030886;28;20726;-56
2022/04/02 08:11:48;;;;;;;0.00;0.00;;;;;;;-0.19;95.09;97902.34;5030721;28;20373;-56
2022/04/02 08:14:15;;;;;;;0.00;0.00;;;;;;;-0.01;93.58;97907.19;5030253;28;20263;-56
2022/04/02 08:16:43;;;;;;;0.00;0.00;;;;;;;-0.13;94.44;97910.56;5030876;28;20663;-56
2022/04/02 08:19:12;;;;;;;0.00;0.00;;;;;;;-0.11;94.26;97921.53;5030970;28;20218;-56
2022/04/02 08:21:39;;;;;;;0.00;0.00;;;;;;;-0.05;93.18;97923.69;5030548;28;20218;-56
2022/04/02 08:24:07;;;;;;;0.00;0.00;;;;;;;-0.02;93.74;97921.75;5030379;28;20210;-56
2022/04/02 08:26:56;;;;;;;0.00;0.00;;;;;;;-0.06;94.67;97933.13;5029444;28;20205;-56
2022/04/02 08:29:36;;;;;;;0.00;0.00;;;;;;;0.08;92.92;97931.41;5030809;28;20211;-56
2022/04/02 08:32:16;;;;;;;0.00;0.00;;;;;;;0.06;92.77;97935.81;5030861;28;20180;-56
2022/04/02 08:35:00;;;;;;;0.00;0.00;;;;;;;-0.11;93.59;97939.50;5031495;28;20212;-56
2022/04/02 08:37:34;;;;;;;0.07;0.07;;;;;;;0.02;92.62;97942.88;5034727;28;20192;-56
2022/04/02 08:40:19;;;;;;;0.00;0.00;;;;;;;0.08;92.28;97945.03;5034489;28;20528;-56
2022/04/02 08:43:22;;;;;;;0.00;0.00;;;;;;;-0.06;92.08;97950.28;5033515;28;20690;-56
2022/04/02 08:45:58;;;;;;;0.00;0.00;;;;;;;-0.26;93.84;97954.13;5033975;28;20191;-56
2022/04/02 08:48:26;;;;;;;0.00;0.00;;;;;;;-0.23;93.94;97959.06;5034537;28;20268;-56
2022/04/02 08:51:27;;;;;;;0.00;0.00;;;;;;;0.05;92.18;97968.34;5034270;28;20195;-56
2022/04/02 08:54:04;;;;;;;0.00;0.00;;;;;;;-0.08;92.70;97973.47;5001435;28;20216;-56
2022/04/02 08:56:35;;;;;;;0.00;0.00;;;;;;;-0.22;93.24;97961.53;5033125;28;20623;-56
2022/04/02 08:59:04;;;;;;;0.00;0.00;;;;;;;-0.10;92.00;97982.19;5034473;28;20202;-56
2022/04/02 09:01:40;;;;;;;0.00;0.00;;;;;;;-0.08;92.63;97983.72;5034053;28;20683;-56
2022/04/02 09:04:34;;;;;;;0.00;0.00;;;;;;;0.13;90.21;97984.06;5033678;28;20234;-56
2022/04/02 09:07:31;;;;;;;0.00;0.00;;;;;;;-0.34;92.69;97980.28;5032942;28;20664;-56
2022/04/02 09:10:40;;;;;;;0.00;0.00;;;;;;;-0.07;92.31;97995.63;5033892;28;20488;-56
2022/04/02 09:13:56;;;;;;;0.00;0.00;;;;;;;0.08;90.92;98004.06;5031879;28;20207;-56
2022/04/02 09:16:27;;;;;;;0.00;0.00;;;;;;;-0.37;92.72;97996.66;5034050;28;20202;-56
2022/04/02 09:19:12;;;;;;;0.00;0.00;;;;;;;-0.48;95.67;97997.34;5034095;28;20199;-56
2022/04/02 09:21:57;;;;;;;0.00;0.00;;;;;;;-0.12;94.57;98007.13;5034007;28;20247;-56
2022/04/02 09:24:44;;;;;;;0.00;0.00;;;;;;;0.00;91.85;98008.91;5033387;28;20230;-56
2022/04/02 09:27:40;;;;;;;0.00;0.00;;;;;;;0.01;91.82;98007.94;5034237;28;20209;-56
2022/04/02 09:30:18;;;;;;;0.00;0.00;;;;;;;0.10;90.61;98011.69;5006502;28;20245;-56
2022/04/02 09:33:18;;;;;;;0.00;0.00;;;;;;;0.20;89.95;98022.16;5033858;28;20532;-56
2022/04/02 09:36:14;;;;;;;0.00;0.00;;;;;;;-0.18;91.66;98013.44;5033231;28;20560;-56
2022/04/02 09:39:04;;;;;;;0.00;0.00;;;;;;;-0.02;89.94;98019.25;5024281;28;20572;-56
2022/04/02 09:42:09;;;;;;;0.00;0.00;;;;;;;0.35;88.89;98018.59;5033380;28;20202;-56
2022/04/02 09:44:52;;;;;;;0.00;0.00;;;;;;;0.20;88.77;98022.16;5023916;28;20303;-56
2022/04/02 09:47:21;;;;;;;0.00;0.00;;;;;;;0.14;90.09;98023.38;5033335;28;20188;-56
2022/04/02 09:50:08;;;;;;;0.00;0.00;;;;;;;0.36;88.33;98022.78;5033406;28;20266;-56
2022/04/02 09:52:39;;;;;;;0.00;0.00;;;;;;;0.19;91.04;98029.03;5033445;28;20207;-56
2022/04/02 09:55:09;;;;;;;0.00;0.00;;;;;;;0.08;89.01;98024.59;5033076;28;20226;-56
2022/04/02 09:58:18;;;;;;;0.00;0.00;;;;;;;0.35;89.44;98033.19;5033360;28;20253;-56
2022/04/02 10:00:51;;;;;;;0.00;0.00;;;;;;;0.39;89.34;98032.88;4968927;28;20291;-56
2022/04/02 10:03:32;;;;;;;0.00;0.00;;;;;;;0.36;88.61;98034.81;5033119;28;20217;-56
2022/04/02 10:06:16;;;;;;;0.00;0.00;;;;;;;0.42;88.03;98035.22;5033079;28;20229;-56
2022/04/02 10:09:07;;;;;;;0.00;0.00;;;;;;;0.67;86.17;98041.31;5032993;28;20675;-56
2022/04/02 10:11:39;;;;;;;0.00;0.00;;;;;;;0.67;88.40;98036.19;5030580;28;20290;-56
2022/04/02 10:14:07;;;;;;;0.00;0.00;;;;;;;0.88;86.69;98045.94;5032581;28;20219;-56
2022/04/02 10:16:35;;;;;;;0.00;0.00;;;;;;;0.33;89.66;98048.66;5032990;28;20190;-56
2022/04/02 10:19:08;;;;;;;0.00;0.00;;;;;;;0.13;90.48;98053.34;5032928;28;20184;-56
2022/04/02 10:21:37;;;;;;;0.00;0.00;;;;;;;0.49;89.97;98040.81;5032823;28;20172;-56
2022/04/02 10:24:22;;;;;;;0.00;0.00;;;;;;;0.49;88.98;98048.50;5032349;28;20204;-56
2022/04/02 10:26:52;;;;;;;0.00;0.00;;;;;;;0.78;87.85;98050.84;5032822;28;20225;-56
2022/04/02 10:29:45;;;;;;;0.00;0.00;;;;;;;0.64;88.06;98056.94;5032737;28;20203;-56
2022/04/02 10:32:45;;;;;;;0.00;0.00;;;;;;;0.42;89.79;98065.22;5032754;28;20196;-56
2022/04/02 10:35:14;;;;;;;0.00;0.00;;;;;;;0.65;88.42;98057.72;5032160;28;20199;-56
2022/04/02 10:37:43;;;;;;;0.00;0.00;;;;;;;0.11;89.80;98060.31;5032401;28;20591;-56
2022/04/02 10:40:13;;;;;;;0.00;0.00;;;;;;;0.06;90.17;98070.06;5032086;28;20191;-56
2022/04/02 10:42:42;;;;;;;0.00;0.00;;;;;;;-0.02;94.36;98059.50;5032748;28;20199;-56
2022/04/02 10:45:12;;;;;;;0.00;0.00;;;;;;;0.25;90.67;98066.31;5031917;28;20215;-56
2022/04/02 10:47:43;;;;;;;0.00;0.00;;;;;;;0.42;89.11;98065.22;5032321;28;20191;-56
2022/04/02 10:50:11;;;;;;;0.00;0.00;;;;;;;0.35;89.49;98074.25;5031905;28;20207;-56
2022/04/02 10:52:38;;;;;;;0.00;0.00;;;;;;;0.34;89.40;98080.31;5032171;28;20274;-56
2022/04/02 10:55:06;;;;;;;0.00;0.00;;;;;;;0.55;90.80;98080.66;5031888;28;20285;-56
2022/04/02 10:57:34;;;;;;;0.00;0.00;;;;;;;0.89;86.95;98078.41;5031620;28;20184;-56
2022/04/02 11:00:04;;;;;;;0.00;0.00;;;;;;;1.31;84.38;98080.75;5032033;28;20234;-56
2022/04/02 11:02:42;;;;;;;0.00;0.00;;;;;;;0.78;85.87;98083.44;5032110;28;20180;-56
2022/04/02 11:05:10;;;;;;;0.00;0.00;;;;;;;0.91;85.63;98083.44;5031285;28;20247;-55
2022/04/02 11:07:42;;;;;;;0.00;0.00;;;;;;;0.62;85.75;98086.19;5032069;28;20180;-55
2022/04/02 11:10:12;;;;;;;0.00;0.00;;;;;;;0.81;86.48;98085.81;5031616;28;20211;-56
2022/04/02 11:12:44;;;;;;;0.00;0.00;;;;;;;0.71;87.40;98094.13;5031913;28;20184;-56
2022/04/02 11:15:14;;;;;;;0.00;0.00;;;;;;;1.05;87.68;98095.38;5031326;28;20267;-56
2022/04/02 11:17:42;;;;;;;0.00;0.00;;;;;;;0.97;86.14;98091.56;5031690;28;20200;-55
2022/04/02 11:20:12;;;;;;;0.00;0.00;;;;;;;0.70;85.85;98095.06;5031203;28;20207;-56
2022/04/02 11:22:59;;;;;;;0.00;0.00;;;;;;;0.47;87.54;98095.72;5031846;28;20194;-56
2022/04/02 11:25:28;;;;;;;0.00;0.00;;;;;;;0.02;89.56;98096.84;5031071;28;20183;-56
2022/04/02 11:27:59;;;;;;;0.00;0.00;;;;;;;0.20;91.34;98094.84;5031339;28;20187;-56
2022/04/02 11:30:29;;;;;;;0.00;0.00;;;;;;;0.33;90.35;98105.16;5031014;28;20238;-56
2022/04/02 11:33:04;;;;;;;0.00;0.00;;;;;;;0.38;89.72;98113.38;5031385;28;20202;-55
2022/04/02 11:35:32;;;;;;;0.00;0.00;;;;;;;0.36;89.13;98120.34;5030659;28;20638;-56
2022/04/02 11:38:08;;;;;;;0.00;0.00;;;;;;;0.29;88.63;98114.81;5031224;28;20192;-56
2022/04/02 11:40:39;;;;;;;0.00;0.00;;;;;;;0.18;90.21;98122.38;5031321;28;20194;-56
2022/04/02 11:43:07;;;;;;;0.00;0.00;;;;;;;0.50;90.30;98123.78;5031114;28;20184;-56
2022/04/02 11:45:37;;;;;;;0.00;0.00;;;;;;;0.86;94.03;98130.00;5030642;28;20707;-47
2022/04/02 11:48:09;;;;;;;0.00;0.00;;;;;;;0.88;89.93;98130.72;5031007;28;20216;-46
2022/04/02 11:50:40;;;;;;;0.00;0.00;;;;;;;1.13;87.97;98127.34;5030571;28;20290;-45
2022/04/02 11:53:07;;;;;;;0.00;0.00;;;;;;;1.22;85.18;98133.59;5030760;28;20267;-44
2022/04/02 11:55:36;;;;;;;0.00;0.00;;;;;;;1.51;81.79;98133.38;5030454;28;20270;-56
2022/04/02 11:58:05;;;;;;;0.00;0.00;;;;;;;0.92;85.28;98136.47;5030826;28;20271;-56
2022/04/02 12:00:35;;;;;;;0.00;0.00;;;;;;;0.91;85.16;98135.66;5030477;28;20185;-55